Time;durP1;ratioP1;P1;durP2;ratioP2;P2;SDS_P1;SDS_P2;PMS_P1;PMS_P2;Temp;Humidity;BMP_temperature;BMP_pressure;BME280_temperature;BME280_humidity;BME280_pressure;Samples;Min_cycle;Max_cycle;Signal;HPM_P1;HPM_P2
2022/10/24 04:30:45;;;;;;;;;1.67;1.00;;;;;-147.14;100.00;58812.66;5779351;23;45271;-66
2022/10/24 04:33:10;;;;;;;;;5.00;2.00;;;;;-147.14;100.00;58812.66;4970690;28;64587;-65
2022/10/24 04:35:35;;;;;;;;;1.00;0.00;;;;;-147.14;100.00;58812.66;4966259;28;59472;-65
2022/10/24 04:38:01;;;;;;;;;3.67;2.00;;;;;-147.14;100.00;58812.66;4977513;28;65671;-66
2022/10/24 04:40:26;;;;;;;;;3.00;2.00;;;;;-147.14;100.00;58812.66;4969789;28;45513;-65
2022/10/24 04:42:52;;;;;;;;;1.67;1.33;;;;;-147.14;100.00;58812.66;4968365;28;45463;-65
2022/10/24 04:45:17;;;;;;;;;4.00;1.00;;;;;-147.14;100.00;58812.66;4970569;28;70072;-65
2022/10/24 04:47:43;;;;;;;;;4.33;1.00;;;;;-147.14;100.00;58812.66;4964847;28;45487;-65
2022/10/24 04:50:08;;;;;;;;;3.00;1.00;;;;;-147.14;100.00;58812.66;4964724;28;69743;-65
2022/10/24 04:52:34;;;;;;;;;1.33;1.00;;;;;-147.14;100.00;58812.66;4970991;28;47131;-65
2022/10/24 04:54:59;;;;;;;;;3.33;1.00;;;;;-147.14;100.00;58812.66;4975308;28;70100;-65
2022/10/24 04:57:24;;;;;;;;;2.00;1.00;;;;;-147.14;100.00;58812.66;4975507;28;45514;-65
2022/10/24 04:59:50;;;;;;;;;4.67;1.00;;;;;-147.14;100.00;58812.66;4974857;28;45523;-65
2022/10/24 05:02:15;;;;;;;;;8.00;2.00;;;;;-147.14;100.00;58812.66;4972842;28;71599;-66
2022/10/24 05:04:40;;;;;;;;;2.33;1.67;;;;;-147.14;100.00;58812.66;4975983;28;54897;-65
2022/10/24 05:07:05;;;;;;;;;6.33;1.67;;;;;-147.14;100.00;58812.66;4974935;28;65259;-65
2022/10/24 05:09:31;;;;;;;;;2.67;2.00;;;;;-147.14;100.00;58812.66;4970598;28;68785;-65
2022/10/24 05:11:57;;;;;;;;;4.67;2.00;;;;;-147.14;100.00;58812.66;4970811;28;46212;-65
2022/10/24 05:14:22;;;;;;;;;4.00;3.00;;;;;-147.14;100.00;58812.66;4976487;28;45268;-65
2022/10/24 05:16:48;;;;;;;;;1.00;1.00;;;;;-147.14;100.00;58812.66;4967720;28;45732;-65
2022/10/24 05:19:14;;;;;;;;;1.00;1.00;;;;;-147.14;100.00;58812.66;4972224;28;51569;-65
2022/10/24 05:21:40;;;;;;;;;2.00;1.00;;;;;-147.14;100.00;58812.66;4969019;28;45466;-65
2022/10/24 05:24:05;;;;;;;;;2.00;2.00;;;;;-147.14;100.00;58812.66;4971963;28;45360;-65
2022/10/24 05:26:31;;;;;;;;;7.67;3.00;;;;;-147.14;100.00;58812.66;4975574;28;45506;-65
2022/10/24 05:28:56;;;;;;;;;4.33;1.00;;;;;-147.14;100.00;58812.66;4977198;28;59050;-65
2022/10/24 05:31:22;;;;;;;;;1.33;1.33;;;;;-147.14;100.00;58812.66;4970802;28;69750;-65
2022/10/24 05:33:47;;;;;;;;;3.33;1.00;;;;;-147.14;100.00;58812.66;4960991;28;71599;-65
2022/10/24 05:36:12;;;;;;;;;1.33;1.00;;;;;-147.14;100.00;58812.66;4971463;28;45313;-65
2022/10/24 05:38:38;;;;;;;;;2.67;2.00;;;;;-147.14;100.00;58812.66;4961923;28;45294;-65
2022/10/24 05:41:03;;;;;;;;;6.33;2.00;;;;;-147.14;100.00;58812.66;4969531;28;46016;-65
2022/10/24 05:43:28;;;;;;;;;3.00;1.33;;;;;-147.14;100.00;58812.66;4961338;28;45485;-65
2022/10/24 05:45:54;;;;;;;;;4.00;1.00;;;;;-147.14;100.00;58812.66;4967246;28;65230;-65
2022/10/24 05:48:19;;;;;;;;;2.00;2.00;;;;;-147.14;100.00;58812.66;4970548;28;56830;-65
2022/10/24 05:50:44;;;;;;;;;1.33;1.00;;;;;-147.14;100.00;58812.66;4965392;28;52412;-65
2022/10/24 05:53:11;;;;;;;;;6.00;2.00;;;;;-147.14;100.00;58812.66;4977021;28;71915;-65
2022/10/24 05:55:37;;;;;;;;;3.33;1.67;;;;;-147.14;100.00;58812.66;4972151;28;45598;-65
2022/10/24 05:58:02;;;;;;;;;2.33;2.00;;;;;-147.14;100.00;58812.66;4966531;28;45417;-66
2022/10/24 06:00:27;;;;;;;;;3.00;2.00;;;;;-147.14;100.00;58812.66;4971596;28;45375;-64
2022/10/24 06:02:53;;;;;;;;;2.00;1.67;;;;;-147.14;100.00;58812.66;4974833;28;68356;-66
2022/10/24 06:05:18;;;;;;;;;3.00;1.00;;;;;-147.14;100.00;58812.66;4963696;28;68580;-66
2022/10/24 06:07:44;;;;;;;;;4.33;3.00;;;;;-147.14;100.00;58812.66;4968198;28;45354;-64
2022/10/24 06:10:10;;;;;;;;;2.67;2.00;;;;;-147.14;100.00;58812.66;4975258;28;45683;-65
2022/10/24 06:12:36;;;;;;;;;4.67;2.67;;;;;-147.14;100.00;58812.66;4978165;28;45806;-64
2022/10/24 06:15:03;;;;;;;;;7.67;2.67;;;;;-147.14;100.00;58812.66;4968452;28;45516;-65
2022/10/24 06:17:29;;;;;;;;;3.33;1.33;;;;;-147.14;100.00;58812.66;4969661;28;45611;-65
2022/10/24 06:19:54;;;;;;;;;4.67;2.33;;;;;-147.14;100.00;58812.66;4973232;28;45988;-65
2022/10/24 06:22:22;;;;;;;;;4.67;2.67;;;;;-147.14;100.00;58812.66;4973041;28;45537;-65
2022/10/24 06:24:48;;;;;;;;;2.00;1.00;;;;;-147.14;100.00;58812.66;4969437;28;45349;-65
2022/10/24 06:27:13;;;;;;;;;6.00;1.33;;;;;-147.14;100.00;58812.66;4967979;28;68225;-65
2022/10/24 06:29:38;;;;;;;;;3.00;1.67;;;;;-147.14;100.00;58812.66;4976771;28;45459;-65
2022/10/24 06:32:04;;;;;;;;;4.67;2.00;;;;;-147.14;100.00;58812.66;4975280;28;45316;-65
2022/10/24 06:34:29;;;;;;;;;3.67;1.67;;;;;-147.14;100.00;58812.66;4972278;28;45445;-65
2022/10/24 06:36:54;;;;;;;;;2.00;0.00;;;;;-147.14;100.00;58812.66;4974649;28;52698;-66
2022/10/24 06:39:20;;;;;;;;;7.67;4.00;;;;;-147.14;100.00;58812.66;4954092;28;47076;-66
2022/10/24 06:41:45;;;;;;;;;4.33;1.67;;;;;-147.14;100.00;58812.66;4975598;28;72007;-65
2022/10/24 06:44:10;;;;;;;;;4.00;2.67;;;;;-147.14;100.00;58812.66;4971346;28;60374;-65
2022/10/24 06:46:36;;;;;;;;;6.00;1.67;;;;;-147.14;100.00;58812.66;4964698;28;66228;-65
2022/10/24 06:49:23;;;;;;;;;2.00;2.00;;;;;-147.14;100.00;58812.66;4971301;28;71383;-65
2022/10/24 06:51:49;;;;;;;;;7.67;2.67;;;;;-147.14;100.00;58812.66;4964269;28;45559;-64
2022/10/24 06:54:14;;;;;;;;;8.33;3.00;;;;;-147.14;100.00;58812.66;4968378;28;53567;-65
2022/10/24 06:56:40;;;;;;;;;1.67;1.67;;;;;-147.14;100.00;58812.66;4971369;28;45488;-66
2022/10/24 06:59:10;;;;;;;;;1.00;0.00;;;;;-147.14;100.00;58812.66;4976254;28;75498;-65
2022/10/24 07:01:35;;;;;;;;;1.67;1.00;;;;;-147.14;100.00;58812.66;4976359;28;45376;-65
2022/10/24 07:04:00;;;;;;;;;5.33;2.00;;;;;-147.14;100.00;58812.66;4971976;28;45578;-66
2022/10/24 07:06:28;;;;;;;;;8.67;2.00;;;;;-147.14;100.00;58812.66;4975302;28;45425;-67
2022/10/24 07:08:56;;;;;;;;;3.67;1.67;;;;;-147.14;100.00;58812.66;4976411;28;45475;-67
2022/10/24 07:11:21;;;;;;;;;3.00;2.00;;;;;-147.14;100.00;58812.66;4967462;28;45544;-67
2022/10/24 07:13:47;;;;;;;;;3.00;1.00;;;;;-147.14;100.00;58812.66;4971299;28;45777;-67
2022/10/24 07:16:13;;;;;;;;;3.00;2.00;;;;;-147.14;100.00;58812.66;4973805;28;45574;-66
2022/10/24 07:18:38;;;;;;;;;2.33;1.00;;;;;-147.14;100.00;58812.66;4975804;28;45460;-67
2022/10/24 07:21:06;;;;;;;;;3.00;1.33;;;;;-147.14;100.00;58812.66;4978478;28;45294;-66
2022/10/24 07:23:33;;;;;;;;;2.33;2.00;;;;;-147.14;100.00;58812.66;4968015;28;45393;-67
2022/10/24 07:26:11;;;;;;;;;1.33;0.33;;;;;-147.14;100.00;58812.66;4962230;28;45584;-66
2022/10/24 07:28:38;;;;;;;;;3.67;3.33;;;;;-147.14;100.00;58812.66;4969290;28;46830;-64
2022/10/24 07:31:04;;;;;;;;;3.33;1.00;;;;;-147.14;100.00;58812.66;4978210;28;45531;-63
2022/10/24 07:33:30;;;;;;;;;1.00;1.00;;;;;-147.14;100.00;58812.66;4986236;28;45492;-63
2022/10/24 07:35:56;;;;;;;;;3.00;1.00;;;;;-147.14;100.00;58812.66;4988318;28;45584;-63
2022/10/24 07:38:21;;;;;;;;;5.33;3.33;;;;;-147.14;100.00;58812.66;4986031;28;45572;-63
2022/10/24 07:40:47;;;;;;;;;3.00;1.67;;;;;-147.14;100.00;58812.66;4974783;28;45697;-61
2022/10/24 07:43:13;;;;;;;;;5.00;2.33;;;;;-147.14;100.00;58812.66;4977749;28;45576;-63
2022/10/24 07:45:38;;;;;;;;;2.67;2.33;;;;;-147.14;100.00;58812.66;4977288;28;55810;-62
2022/10/24 07:48:05;;;;;;;;;1.67;1.67;;;;;-147.14;100.00;58812.66;4997438;28;45725;-62
2022/10/24 07:50:31;;;;;;;;;2.00;1.67;;;;;-147.14;100.00;58812.66;4989386;28;45596;-62
2022/10/24 07:52:56;;;;;;;;;2.67;2.00;;;;;-147.14;100.00;58812.66;4991870;28;45387;-62
2022/10/24 07:55:22;;;;;;;;;5.67;2.00;;;;;-147.14;100.00;58812.66;5000863;28;45429;-62
2022/10/24 07:57:47;;;;;;;;;3.00;1.67;;;;;-147.14;100.00;58812.66;4991148;28;73517;-62
2022/10/24 08:00:13;;;;;;;;;1.00;1.00;;;;;-147.14;100.00;58812.66;4994763;28;45638;-62
2022/10/24 08:02:39;;;;;;;;;5.00;1.67;;;;;-147.14;100.00;58812.66;4997155;28;45516;-62
2022/10/24 08:05:05;;;;;;;;;5.00;2.00;;;;;-147.14;100.00;58812.66;4999934;28;45539;-62
2022/10/24 08:07:30;;;;;;;;;4.67;2.00;;;;;-147.14;100.00;58812.66;4994025;28;45617;-62
2022/10/24 08:09:55;;;;;;;;;7.33;3.33;;;;;-147.14;100.00;58812.66;4992119;28;66034;-62
2022/10/24 08:12:21;;;;;;;;;6.00;2.00;;;;;-147.14;100.00;58812.66;4997679;28;68540;-62
2022/10/24 08:14:46;;;;;;;;;3.00;1.33;;;;;-147.14;100.00;58812.66;4991100;28;66950;-62
2022/10/24 08:17:12;;;;;;;;;4.67;2.00;;;;;-147.14;100.00;58812.66;4991958;28;45519;-63
2022/10/24 08:19:40;;;;;;;;;6.00;2.33;;;;;-147.14;100.00;58812.66;4995533;28;45416;-61
2022/10/24 08:22:06;;;;;;;;;3.33;2.33;;;;;-147.14;100.00;58812.66;4991833;28;45537;-62
2022/10/24 08:24:31;;;;;;;;;4.00;1.00;;;;;-147.14;100.00;58812.66;4990546;28;45338;-61
2022/10/24 08:26:57;;;;;;;;;3.33;1.67;;;;;-147.14;100.00;58812.66;4988839;28;70121;-62
2022/10/24 08:29:24;;;;;;;;;3.00;1.33;;;;;-147.14;100.00;58812.66;4991201;28;45230;-62
2022/10/24 08:31:55;;;;;;;;;2.67;2.00;;;;;-147.14;100.00;58812.66;4982002;28;45555;-62
2022/10/24 08:34:21;;;;;;;;;0.67;0.67;;;;;-147.14;100.00;58812.66;4976470;28;45507;-62
2022/10/24 08:36:47;;;;;;;;;3.67;2.00;;;;;-147.14;100.00;58812.66;4971301;28;46015;-62
2022/10/24 08:39:13;;;;;;;;;1.67;1.67;;;;;-147.14;100.00;58812.66;4972739;28;45476;-61
2022/10/24 08:41:56;;;;;;;;;5.00;1.00;;;;;-147.14;100.00;58812.66;4973593;28;45477;-61
2022/10/24 08:44:36;;;;;;;;;4.00;2.00;;;;;-147.14;100.00;58812.66;4975538;28;45522;-63
2022/10/24 08:47:37;;;;;;;;;3.00;2.00;;;;;-147.14;100.00;58812.66;4991996;28;46200;-63
2022/10/24 08:50:26;;;;;;;;;2.67;2.00;;;;;-147.14;100.00;58812.66;4970143;28;45483;-62
2022/10/24 08:53:24;;;;;;;;;1.33;1.33;;;;;-147.14;100.00;58812.66;4977890;28;45535;-62
2022/10/24 08:55:54;;;;;;;;;2.67;2.33;;;;;-147.14;100.00;58812.66;4990705;28;45530;-61
2022/10/24 08:58:33;;;;;;;;;5.00;1.67;;;;;-147.14;100.00;58812.66;4977902;28;46071;-62
2022/10/24 09:01:01;;;;;;;;;4.00;2.00;;;;;-147.14;100.00;58812.66;4976154;28;45460;-61
2022/10/24 09:03:39;;;;;;;;;2.00;2.00;;;;;-147.14;100.00;58812.66;4974855;28;45421;-62
2022/10/24 09:06:08;;;;;;;;;1.67;1.00;;;;;-147.14;100.00;58812.66;4966606;28;45431;-61
2022/10/24 09:08:52;;;;;;;;;4.33;2.33;;;;;-147.14;100.00;58812.66;4966936;28;46154;-61
2022/10/24 09:11:55;;;;;;;;;1.67;1.67;;;;;-147.14;100.00;58812.66;4974454;28;46355;-63
2022/10/24 09:14:26;;;;;;;;;6.33;1.00;;;;;-147.14;100.00;58812.66;4958483;28;45725;-63
2022/10/24 09:17:18;;;;;;;;;3.67;1.33;;;;;-147.14;100.00;58812.66;4965514;28;45360;-63
2022/10/24 09:19:54;;;;;;;;;2.00;2.00;;;;;-147.14;100.00;58812.66;4968575;28;45566;-63
2022/10/24 09:22:22;;;;;;;;;1.00;1.00;;;;;-147.14;100.00;58812.66;4979024;28;45414;-66
2022/10/24 09:24:52;;;;;;;;;5.00;1.67;;;;;-147.14;100.00;58812.66;4968495;28;45350;-66
2022/10/24 09:27:24;;;;;;;;;7.67;0.67;;;;;-147.14;100.00;58812.66;4976761;28;45409;-66
2022/10/24 09:29:50;;;;;;;;;6.00;3.00;;;;;-147.14;100.00;58812.66;4972861;28;46125;-66
2022/10/24 09:32:21;;;;;;;;;2.33;0.00;;;;;-147.14;100.00;58812.66;4978148;28;45495;-66
2022/10/24 09:34:47;;;;;;;;;4.33;2.00;;;;;-147.14;100.00;58812.66;4975908;28;45393;-66
2022/10/24 09:37:39;;;;;;;;;2.00;2.00;;;;;-147.14;100.00;58812.66;4978232;28;45355;-66
2022/10/24 09:40:05;;;;;;;;;1.00;1.00;;;;;-147.14;100.00;58812.66;4972802;28;46299;-66
2022/10/24 09:42:30;;;;;;;;;4.00;2.00;;;;;-147.14;100.00;58812.66;4973772;28;45743;-66
2022/10/24 09:44:56;;;;;;;;;4.67;2.67;;;;;-147.14;100.00;58812.66;4978998;28;45371;-66
2022/10/24 09:47:27;;;;;;;;;1.25;1.25;;;;;-147.14;100.00;58812.66;4978219;28;64140;-66
2022/10/24 09:49:53;;;;;;;;;3.33;1.67;;;;;-147.14;100.00;58812.66;4986490;28;45935;-65
2022/10/24 09:52:22;;;;;;;;;3.67;2.00;;;;;-147.14;100.00;58812.66;4974115;28;45498;-66
2022/10/24 09:55:04;;;;;;;;;4.00;3.00;;;;;-147.14;100.00;58812.66;4984053;28;45365;-65
2022/10/24 09:57:38;;;;;;;;;7.00;2.00;;;;;-147.14;100.00;58812.66;4974045;28;45307;-66
2022/10/24 10:00:04;;;;;;;;;2.00;1.25;;;;;-147.14;100.00;58812.66;4977460;28;46576;-66
2022/10/24 10:02:35;;;;;;;;;1.50;1.50;;;;;-147.14;100.00;58812.66;4978134;28;45385;-65
2022/10/24 10:05:03;;;;;;;;;2.50;2.00;;;;;-147.14;100.00;58812.66;4976465;28;45371;-66
2022/10/24 10:07:40;;;;;;;;;2.00;1.25;;;;;-147.14;100.00;58812.66;4979094;28;45771;-66
2022/10/24 10:10:20;;;;;;;;;1.50;1.50;;;;;-147.14;100.00;58812.66;4971609;28;46145;-66
2022/10/24 10:12:58;;;;;;;;;3.00;2.00;;;;;-147.14;100.00;58812.66;4969273;28;45468;-66
2022/10/24 10:15:29;;;;;;;;;4.33;2.00;;;;;-147.14;100.00;58812.66;4960262;28;45510;-66
2022/10/24 10:17:57;;;;;;;;;3.33;3.00;;;;;-147.14;100.00;58812.66;4973647;28;45318;-66
2022/10/24 10:20:28;;;;;;;;;4.67;3.67;;;;;-147.14;100.00;58812.66;4971048;28;46454;-67
2022/10/24 10:22:53;;;;;;;;;3.00;3.00;;;;;-147.14;100.00;58812.66;4977047;28;45606;-67
2022/10/24 10:25:30;;;;;;;;;3.25;2.00;;;;;-147.14;100.00;58812.66;4975260;28;66326;-66
2022/10/24 10:27:56;;;;;;;;;2.25;2.00;;;;;-147.14;100.00;58812.66;4975944;28;45349;-67
2022/10/24 10:30:21;;;;;;;;;1.25;1.00;;;;;-147.14;100.00;58812.66;4977606;28;46984;-67
2022/10/24 10:33:00;;;;;;;;;4.00;2.00;;;;;-147.14;100.00;58812.66;4976874;28;45395;-67
2022/10/24 10:35:38;;;;;;;;;3.50;1.00;;;;;-147.14;100.00;58812.66;4966284;28;45353;-67
2022/10/24 10:38:18;;;;;;;;;6.25;2.00;;;;;-147.14;100.00;58812.66;4972069;28;45997;-68
2022/10/24 10:40:45;;;;;;;;;4.75;3.25;;;;;-147.14;100.00;58812.66;4976516;28;45462;-67
2022/10/24 10:43:38;;;;;;;;;3.25;2.25;;;;;-147.14;100.00;58812.66;4977446;28;45706;-67
2022/10/24 10:46:28;;;;;;;;;4.25;1.50;;;;;-147.14;100.00;58812.66;4966102;28;45337;-67
2022/10/24 10:49:16;;;;;;;;;6.25;4.00;;;;;-147.14;100.00;58812.66;4955609;28;45346;-68
2022/10/24 10:51:47;;;;;;;;;1.50;1.00;;;;;-147.14;100.00;58812.66;4962722;28;46381;-67
2022/10/24 10:54:40;;;;;;;;;15.00;9.67;;;;;-147.14;100.00;58812.66;4960177;28;45687;-67
2022/10/24 10:57:18;;;;;;;;;5.00;2.00;;;;;-147.14;100.00;58812.66;4967702;28;45425;-67
2022/10/24 10:59:55;;;;;;;;;7.00;2.50;;;;;-147.14;100.00;58812.66;4972553;28;45902;-67
2022/10/24 11:02:30;;;;;;;;;3.75;2.00;;;;;-147.14;100.00;58812.66;4967343;28;46261;-67
2022/10/24 11:05:36;;;;;;;;;4.25;1.75;;;;;-147.14;100.00;58812.66;4970372;28;45490;-67
2022/10/24 11:08:44;;;;;;;;;3.25;2.00;;;;;-147.14;100.00;58812.66;4966300;28;45506;-67
2022/10/24 11:11:16;;;;;;;;;3.50;2.00;;;;;-147.14;100.00;58812.66;4971559;28;45503;-67
2022/10/24 11:13:48;;;;;;;;;3.25;2.75;;;;;-147.14;100.00;58812.66;4969126;28;46187;-67
2022/10/24 11:16:20;;;;;;;;;3.75;2.25;;;;;-147.14;100.00;58812.66;4971360;28;45428;-67
2022/10/24 11:18:49;;;;;;;;;1.50;1.00;;;;;-147.14;100.00;58812.66;4967603;28;45491;-68
2022/10/24 11:21:16;;;;;;;;;4.75;2.25;;;;;-147.14;100.00;58812.66;4970427;28;45292;-67
2022/10/24 11:23:56;;;;;;;;;4.00;2.00;;;;;-147.14;100.00;58812.66;4972453;28;46923;-67
2022/10/24 11:26:25;;;;;;;;;4.00;1.00;;;;;-147.14;100.00;58812.66;4971232;28;45507;-68
2022/10/24 11:29:01;;;;;;;;;2.00;2.00;;;;;-147.14;100.00;58812.66;4969810;28;45288;-68
2022/10/24 11:31:31;;;;;;;;;1.75;1.75;;;;;-147.14;100.00;58812.66;4977597;28;45519;-67
2022/10/24 11:34:10;;;;;;;;;2.00;1.00;;;;;-147.14;100.00;58812.66;4970683;28;46355;-67
2022/10/24 11:36:41;;;;;;;;;2.00;0.50;;;;;-147.14;100.00;58812.66;4974427;28;45416;-67
2022/10/24 11:39:23;;;;;;;;;3.50;2.00;;;;;-147.14;100.00;58812.66;4971833;28;45309;-67
2022/10/24 11:42:01;;;;;;;;;1.00;1.00;;;;;-147.14;100.00;58812.66;4976526;28;45470;-67
2022/10/24 11:44:38;;;;;;;;;7.25;3.00;;;;;-147.14;100.00;58812.66;4977071;28;46211;-67
2022/10/24 11:47:39;;;;;;;;;2.00;0.75;;;;;-147.14;100.00;58812.66;4973684;28;45477;-67
2022/10/24 11:50:12;;;;;;;;;0.25;0.25;;;;;-147.14;100.00;58812.66;4957988;28;45560;-67
2022/10/24 11:52:42;;;;;;;;;3.00;1.00;;;;;-147.14;100.00;58812.66;4992767;28;45410;-67
2022/10/24 11:55:14;;;;;;;;;3.00;2.75;;;;;-147.14;100.00;58812.66;4969948;28;45408;-67
2022/10/24 11:57:43;;;;;;;;;2.25;2.25;;;;;-147.14;100.00;58812.66;4969964;28;45455;-67
2022/10/24 12:00:17;;;;;;;;;3.00;1.00;;;;;-147.14;100.00;58812.66;4968508;28;45546;-67
2022/10/24 12:03:06;;;;;;;;;1.00;1.00;;;;;-147.14;100.00;58812.66;4966346;28;45404;-67
2022/10/24 12:05:48;;;;;;;;;0.75;0.75;;;;;-147.14;100.00;58812.66;4970475;28;46343;-65
2022/10/24 12:08:33;;;;;;;;;1.50;1.00;;;;;-147.14;100.00;58812.66;4977887;28;45604;-67
2022/10/24 12:11:20;;;;;;;;;2.25;1.00;;;;;-147.14;100.00;58812.66;4987035;28;45969;-67
2022/10/24 12:14:05;;;;;;;;;3.00;1.25;;;;;-147.14;100.00;58812.66;4976859;28;45400;-67
2022/10/24 12:16:49;;;;;;;;;4.50;2.00;;;;;-147.14;100.00;58812.66;4968869;28;46848;-67
2022/10/24 12:19:17;;;;;;;;;4.25;1.00;;;;;-147.14;100.00;58812.66;4992785;28;45425;-67
2022/10/24 12:22:00;;;;;;;;;4.00;2.00;;;;;-147.14;100.00;58812.66;4968341;28;45438;-67
2022/10/24 12:24:33;;;;;;;;;1.75;1.75;;;;;-147.14;100.00;58812.66;4975482;28;45438;-67
2022/10/24 12:27:01;;;;;;;;;1.75;1.75;;;;;-147.14;100.00;58812.66;4979302;28;46245;-67
2022/10/24 12:29:30;;;;;;;;;3.75;2.00;;;;;-147.14;100.00;58812.66;4969079;28;45354;-67
2022/10/24 12:31:56;;;;;;;;;1.50;1.50;;;;;-147.14;100.00;58812.66;4976962;28;45521;-67
2022/10/24 12:34:22;;;;;;;;;4.00;2.00;;;;;-147.14;100.00;58812.66;4994092;28;45405;-67
2022/10/24 12:37:08;;;;;;;;;7.00;1.00;;;;;-147.14;100.00;58812.66;4969685;28;46466;-67
2022/10/24 12:39:43;;;;;;;;;2.00;2.00;;;;;-147.14;100.00;58812.66;4973314;28;45868;-67
2022/10/24 12:42:16;;;;;;;;;5.00;1.00;;;;;-147.14;100.00;58812.66;4977758;28;45688;-67
2022/10/24 12:44:42;;;;;;;;;2.00;2.00;;;;;-147.14;100.00;58812.66;4970257;28;45542;-67
2022/10/24 12:47:40;;;;;;;;;1.00;1.00;;;;;-147.14;100.00;58812.66;4971414;28;47601;-67
2022/10/24 12:50:20;;;;;;;;;3.00;1.50;;;;;-147.14;100.00;58812.66;4982730;28;45517;-67
2022/10/24 12:52:46;;;;;;;;;1.00;1.00;;;;;-147.14;100.00;58812.66;4974424;28;45554;-67
2022/10/24 12:55:40;;;;;;;;;5.00;2.00;;;;;-147.14;100.00;58812.66;4975300;28;45601;-67
2022/10/24 12:58:28;;;;;;;;;1.75;1.25;;;;;-147.14;100.00;58812.66;4943844;28;45457;-67
2022/10/24 13:01:45;;;;;;;;;6.75;4.00;;;;;-147.14;100.00;58812.66;4970859;28;45755;-67
2022/10/24 13:04:16;;;;;;;;;3.00;2.00;;;;;-147.14;100.00;58812.66;4941806;28;45505;-67
2022/10/24 13:06:41;;;;;;;;;1.25;0.50;;;;;-147.14;100.00;58812.66;4974818;28;45503;-67
2022/10/24 13:09:12;;;;;;;;;2.75;1.00;;;;;-147.14;100.00;58812.66;4968436;28;45942;-67
2022/10/24 13:11:47;;;;;;;;;1.25;0.50;;;;;-147.14;100.00;58812.66;4972373;28;45719;-67
2022/10/24 13:14:18;;;;;;;;;2.00;0.00;;;;;-147.14;100.00;58812.66;4971501;28;45567;-67
2022/10/24 13:17:14;;;;;;;;;1.00;1.00;;;;;-147.14;100.00;58812.66;4970380;28;45853;-67
2022/10/24 13:19:40;;;;;;;;;1.75;1.75;;;;;-147.14;100.00;58812.66;4968630;28;46484;-67
2022/10/24 13:22:25;;;;;;;;;2.50;0.50;;;;;-147.14;100.00;58812.66;4970687;28;45470;-67
2022/10/24 13:24:51;;;;;;;;;1.00;1.00;;;;;-147.14;100.00;58812.66;4976673;28;45424;-67
2022/10/24 13:27:24;;;;;;;;;2.00;0.75;;;;;-147.14;100.00;58812.66;4970222;28;64515;-67
2022/10/24 13:29:49;;;;;;;;;4.50;1.00;;;;;-147.14;100.00;58812.66;4968628;28;45436;-67
2022/10/24 13:32:15;;;;;;;;;4.00;1.50;;;;;-147.14;100.00;58812.66;4973610;28;45508;-66
2022/10/24 13:34:44;;;;;;;;;1.25;1.25;;;;;-147.14;100.00;58812.66;4965674;28;45459;-67
2022/10/24 13:37:09;;;;;;;;;0.00;0.00;;;;;-147.14;100.00;58812.66;4970742;28;45881;-66
2022/10/24 13:39:44;;;;;;;;;1.75;0.75;;;;;-147.14;100.00;58812.66;4970270;28;46140;-67
2022/10/24 13:42:31;;;;;;;;;3.75;2.00;;;;;-147.14;100.00;58812.66;4971682;28;45473;-66
2022/10/24 13:45:02;;;;;;;;;2.75;1.00;;;;;-147.14;100.00;58812.66;4976596;28;45580;-67
2022/10/24 13:47:32;;;;;;;;;6.50;1.75;;;;;-147.14;100.00;58812.66;4979535;28;45592;-67
2022/10/24 13:49:58;;;;;;;;;0.00;0.00;;;;;-147.14;100.00;58812.66;4976466;28;45656;-67
2022/10/24 13:52:26;;;;;;;;;2.00;1.00;;;;;-147.14;100.00;58812.66;4994034;28;45445;-67
2022/10/24 13:55:03;;;;;;;;;1.25;1.00;;;;;-147.14;100.00;58812.66;4989801;28;45487;-67
2022/10/24 13:57:36;;;;;;;;;0.50;0.25;;;;;-147.14;100.00;58812.66;4993190;28;45482;-67
2022/10/24 14:00:07;;;;;;;;;0.00;0.00;;;;;-147.14;100.00;58812.66;4987241;28;46947;-67
2022/10/24 14:02:38;;;;;;;;;5.00;1.50;;;;;-147.14;100.00;58812.66;4989359;28;45305;-67
2022/10/24 14:05:04;;;;;;;;;0.00;0.00;;;;;-147.14;100.00;58812.66;4986369;28;45534;-66
2022/10/24 14:07:32;;;;;;;;;0.50;0.00;;;;;-147.14;100.00;58812.66;4995998;28;45616;-66
2022/10/24 14:10:05;;;;;;;;;1.00;1.00;;;;;-147.14;100.00;58812.66;4987856;28;45482;-66
2022/10/24 14:12:31;;;;;;;;;1.00;1.00;;;;;-147.14;100.00;58812.66;4988201;28;45523;-66
2022/10/24 14:14:59;;;;;;;;;2.50;0.75;;;;;-147.14;100.00;58812.66;4985815;28;45491;-66
2022/10/24 14:17:28;;;;;;;;;0.25;0.00;;;;;-147.14;100.00;58812.66;5007712;28;45632;-66
2022/10/24 14:19:55;;;;;;;;;0.00;0.00;;;;;-147.14;100.00;58812.66;4995131;28;45449;-66
2022/10/24 14:22:25;;;;;;;;;2.00;0.50;;;;;-147.14;100.00;58812.66;4997662;28;45494;-67
2022/10/24 14:24:50;;;;;;;;;1.00;0.00;;;;;-147.14;100.00;58812.66;4989051;28;45527;-67
2022/10/24 14:27:17;;;;;;;;;0.00;0.00;;;;;-147.14;100.00;58812.66;4987692;28;70083;-67
2022/10/24 14:30:01;;;;;;;;;1.75;1.25;;;;;-147.14;100.00;58812.66;4987388;28;45552;-67
2022/10/24 14:32:28;;;;;;;;;2.25;0.50;;;;;-147.14;100.00;58812.66;4987807;28;45394;-67
2022/10/24 14:34:54;;;;;;;;;3.00;1.00;;;;;-147.14;100.00;58812.66;4985864;28;45270;-66
2022/10/24 14:37:35;;;;;;;;;1.00;1.00;;;;;-147.14;100.00;58812.66;4980705;28;45777;-66
2022/10/24 14:40:01;;;;;;;;;2.00;0.75;;;;;-147.14;100.00;58812.66;5000173;28;45962;-66
2022/10/24 14:42:26;;;;;;;;;1.50;1.00;;;;;-147.14;100.00;58812.66;5000149;28;45765;-66
2022/10/24 14:44:54;;;;;;;;;2.00;0.75;;;;;-147.14;100.00;58812.66;4983004;28;58745;-66
2022/10/24 14:47:37;;;;;;;;;4.00;1.00;;;;;-147.14;100.00;58812.66;4992231;28;45460;-66
2022/10/24 14:50:34;;;;;;;;;1.00;1.00;;;;;-147.14;100.00;58812.66;4985825;28;46208;-66
2022/10/24 14:53:00;;;;;;;;;2.00;1.00;;;;;-147.14;100.00;58812.66;4990157;28;45672;-67
2022/10/24 14:55:25;;;;;;;;;2.00;2.00;;;;;-147.14;100.00;58812.66;4989697;28;69306;-66
2022/10/24 14:57:52;;;;;;;;;2.00;0.00;;;;;-147.14;100.00;58812.66;4990213;28;60037;-67
2022/10/24 15:00:23;;;;;;;;;1.50;1.00;;;;;-147.14;100.00;58812.66;4987817;28;63518;-67
2022/10/24 15:02:50;;;;;;;;;2.00;1.00;;;;;-147.14;100.00;58812.66;4987419;28;45423;-67
2022/10/24 15:05:18;;;;;;;;;2.75;1.00;;;;;-147.14;100.00;58812.66;4987906;28;45581;-67
2022/10/24 15:07:45;;;;;;;;;1.25;0.75;;;;;-147.14;100.00;58812.66;4988930;28;46475;-67
2022/10/24 15:10:10;;;;;;;;;1.50;1.00;;;;;-147.14;100.00;58812.66;4989620;28;45844;-66
2022/10/24 15:12:55;;;;;;;;;1.00;1.00;;;;;-147.14;100.00;58812.66;4989700;28;46510;-66
2022/10/24 15:15:28;;;;;;;;;2.50;0.50;;;;;-147.14;100.00;58812.66;4984354;28;45493;-67
2022/10/24 15:17:59;;;;;;;;;0.00;0.00;;;;;-147.14;100.00;58812.66;4989994;28;45781;-67
2022/10/24 15:20:28;;;;;;;;;2.75;0.00;;;;;-147.14;100.00;58812.66;4994891;28;46297;-67
2022/10/24 15:22:57;;;;;;;;;4.00;1.00;;;;;-147.14;100.00;58812.66;4985476;28;45486;-67
2022/10/24 15:25:56;;;;;;;;;0.00;0.00;;;;;-147.14;100.00;58812.66;4996946;28;45501;-67
2022/10/24 15:28:37;;;;;;;;;1.00;1.00;;;;;-147.14;100.00;58812.66;4989440;28;45417;-67
2022/10/24 15:31:02;;;;;;;;;4.25;0.00;;;;;-147.14;100.00;58812.66;4989830;28;46057;-67
2022/10/24 15:33:28;;;;;;;;;0.75;0.75;;;;;-147.14;100.00;58812.66;4985614;28;46859;-67
2022/10/24 15:35:54;;;;;;;;;4.00;1.00;;;;;-147.14;100.00;58812.66;4991020;28;63638;-67
2022/10/24 15:38:19;;;;;;;;;1.75;1.00;;;;;-147.14;100.00;58812.66;4994189;28;45481;-66
2022/10/24 15:40:47;;;;;;;;;0.75;0.75;;;;;-147.14;100.00;58812.66;4992089;28;70755;-66
2022/10/24 15:43:15;;;;;;;;;2.00;1.00;;;;;-147.14;100.00;58812.66;4993072;28;45416;-67
2022/10/24 15:45:40;;;;;;;;;1.50;0.75;;;;;-147.14;100.00;58812.66;4985677;28;45483;-67
2022/10/24 15:48:05;;;;;;;;;0.00;0.00;;;;;-147.14;100.00;58812.66;4991738;28;45408;-67
2022/10/24 15:50:31;;;;;;;;;1.00;1.00;;;;;-147.14;100.00;58812.66;4996629;28;73816;-65
2022/10/24 15:52:57;;;;;;;;;0.75;0.75;;;;;-147.14;100.00;58812.66;4992324;28;75022;-66
2022/10/24 15:55:25;;;;;;;;;1.00;0.00;;;;;-147.14;100.00;58812.66;4997495;28;45836;-67
2022/10/24 15:57:50;;;;;;;;;0.00;0.00;;;;;-147.14;100.00;58812.66;4996062;28;45482;-65